Time;durP1;ratioP1;P1;durP2;ratioP2;P2;SDS_P1;SDS_P2;PMS_P1;PMS_P2;Temp;Humidity;BMP_temperature;BMP_pressure;BME280_temperature;BME280_humidity;BME280_pressure;Samples;Min_cycle;Max_cycle;Signal;HPM_P1;HPM_P2
2023/01/31 00:01:16;;;;;;;0.60;0.60;;;3.80;99.90;;;;;;5045317;28;20032;-84
2023/01/31 00:03:43;;;;;;;0.50;0.50;;;3.70;99.90;;;;;;5043246;28;20069;-86
2023/01/31 00:06:22;;;;;;;0.60;0.60;;;3.70;99.90;;;;;;5023970;28;20048;-83
2023/01/31 00:08:49;;;;;;;0.50;0.50;;;4.40;99.90;;;;;;5029824;28;20049;-85
2023/01/31 00:11:16;;;;;;;0.40;0.40;;;3.60;99.90;;;;;;5047194;28;20076;-85
2023/01/31 00:13:42;;;;;;;3.17;3.03;;;3.50;99.90;;;;;;5044412;28;20700;-85
2023/01/31 00:16:09;;;;;;;0.80;0.80;;;3.40;99.90;;;;;;5033109;28;20064;-84
2023/01/31 00:18:37;;;;;;;0.60;0.60;;;3.40;99.90;;;;;;5036558;28;20037;-86
2023/01/31 00:21:08;;;;;;;0.60;0.60;;;3.30;99.90;;;;;;5070047;28;20049;-85
2023/01/31 00:23:34;;;;;;;0.60;0.60;;;3.30;99.90;;;;;;5033477;28;20050;-83
2023/01/31 00:26:18;;;;;;;0.60;0.60;;;3.40;99.90;;;;;;5019286;28;20045;-85
2023/01/31 00:28:45;;;;;;;0.60;0.60;;;3.40;99.90;;;;;;5048110;28;20040;-86
2023/01/31 00:31:13;;;;;;;0.70;0.70;;;4.20;99.90;;;;;;5052126;28;20056;-85
2023/01/31 00:33:40;;;;;;;6.90;2.05;;;3.70;99.90;;;;;;5050045;28;20041;-84
2023/01/31 00:36:10;;;;;;;0.68;0.68;;;3.50;99.90;;;;;;5053158;28;20049;-84
2023/01/31 00:38:36;;;;;;;0.60;0.60;;;3.50;99.90;;;;;;5050810;28;20052;-85
2023/01/31 00:41:08;;;;;;;0.70;0.70;;;3.70;99.90;;;;;;5033611;28;20037;-84
2023/01/31 00:43:33;;;;;;;;;;;4.00;99.90;;;;;;5045257;28;20029;-84
2023/01/31 00:46:00;;;;;;;0.55;0.55;;;3.50;99.90;;;;;;5047408;28;20357;-84
2023/01/31 00:48:26;;;;;;;0.70;0.70;;;4.20;99.90;;;;;;5036548;28;20044;-85
2023/01/31 00:50:52;;;;;;;0.40;0.40;;;3.50;99.90;;;;;;5042721;28;20029;-84
2023/01/31 00:53:22;;;;;;;0.63;0.63;;;4.40;99.90;;;;;;5042185;28;20050;-85
2023/01/31 00:55:50;;;;;;;0.70;0.70;;;3.60;99.90;;;;;;5052106;28;20044;-85
2023/01/31 00:58:16;;;;;;;0.60;0.60;;;3.70;99.90;;;;;;5042538;28;20130;-84
2023/01/31 01:00:41;;;;;;;0.70;0.70;;;3.30;99.90;;;;;;5035057;28;20041;-84
2023/01/31 01:03:07;;;;;;;0.60;0.60;;;3.30;99.90;;;;;;5017884;28;20044;-84
2023/01/31 01:05:33;;;;;;;0.95;0.95;;;3.40;99.90;;;;;;5003033;28;20186;-84
2023/01/31 01:07:58;;;;;;;0.80;0.80;;;3.30;99.90;;;;;;5047685;28;20048;-85
2023/01/31 01:10:24;;;;;;;0.60;0.60;;;3.40;99.90;;;;;;5053739;28;20465;-85
2023/01/31 01:12:50;;;;;;;0.65;0.65;;;3.20;99.90;;;;;;5005771;28;20042;-85
2023/01/31 01:15:16;;;;;;;0.50;0.50;;;3.20;99.90;;;;;;5049542;28;20043;-85
2023/01/31 01:17:41;;;;;;;0.70;0.70;;;3.10;99.90;;;;;;5019387;28;20047;-83
2023/01/31 01:20:08;;;;;;;0.65;0.65;;;3.50;99.90;;;;;;5018471;28;20043;-85
2023/01/31 01:22:35;;;;;;;0.65;0.65;;;3.10;99.90;;;;;;5052602;28;20413;-85
2023/01/31 01:25:02;;;;;;;0.70;0.70;;;3.00;99.90;;;;;;5047956;28;20052;-84
2023/01/31 01:27:27;;;;;;;0.70;0.70;;;3.00;99.90;;;;;;5048132;28;20040;-85
2023/01/31 01:29:53;;;;;;;0.60;0.60;;;3.00;99.90;;;;;;5031873;28;20117;-84
2023/01/31 01:32:19;;;;;;;0.60;0.60;;;2.90;99.90;;;;;;5051066;28;20110;-84
2023/01/31 01:34:44;;;;;;;0.60;0.60;;;2.90;99.90;;;;;;5044797;28;20051;-83
2023/01/31 01:37:18;;;;;;;0.88;0.88;;;2.90;99.90;;;;;;5034697;28;20491;-85
2023/01/31 01:39:48;;;;;;;0.63;0.63;;;3.10;99.90;;;;;;5021308;28;20407;-85
2023/01/31 01:42:20;;;;;;;0.60;0.60;;;3.70;99.90;;;;;;5047974;28;20581;-85
2023/01/31 01:44:58;;;;;;;0.40;0.40;;;3.00;99.90;;;;;;5053348;28;20066;-85
2023/01/31 01:47:45;;;;;;;0.90;0.90;;;3.10;99.90;;;;;;5052883;28;20075;-84
2023/01/31 01:50:24;;;;;;;0.52;0.52;;;3.10;99.90;;;;;;5053378;28;20094;-84
2023/01/31 01:52:57;;;;;;;0.63;0.63;;;3.20;99.90;;;;;;5043666;28;20050;-86
2023/01/31 01:55:36;;;;;;;0.70;0.70;;;4.30;99.90;;;;;;5050315;28;20076;-83
2023/01/31 01:58:18;;;;;;;0.70;0.70;;;3.30;99.90;;;;;;5044852;28;20047;-84
2023/01/31 02:00:45;;;;;;;0.70;0.70;;;3.40;99.90;;;;;;5048108;28;20124;-85
2023/01/31 02:03:11;;;;;;;0.43;0.43;;;3.90;99.90;;;;;;5023829;28;20098;-85
2023/01/31 02:05:45;;;;;;;;;;;4.30;99.90;;;;;;5048861;28;20124;-86
2023/01/31 02:08:14;;;;;;;0.70;0.70;;;3.40;99.90;;;;;;5048898;28;19917;-84
2023/01/31 02:10:48;;;;;;;0.57;0.57;;;3.50;99.90;;;;;;5050567;28;20116;-86
2023/01/31 02:13:15;;;;;;;0.47;0.47;;;3.50;99.90;;;;;;5051851;28;20060;-84
2023/01/31 02:15:41;;;;;;;0.60;0.60;;;3.50;99.90;;;;;;5050017;28;20044;-85
2023/01/31 02:18:08;;;;;;;0.70;0.70;;;3.60;99.90;;;;;;5049698;28;20421;-85
2023/01/31 02:21:01;;;;;;;0.60;0.60;;;3.60;99.90;;;;;;5057508;28;20465;-85
2023/01/31 02:23:56;;;;;;;0.70;0.70;;;3.60;99.90;;;;;;5048362;28;20041;-85
2023/01/31 02:26:49;;;;;;;0.60;0.60;;;3.70;99.90;;;;;;5049794;28;20041;-85
2023/01/31 02:29:27;;;;;;;0.50;0.50;;;3.70;99.90;;;;;;5049044;28;20405;-85
2023/01/31 02:32:17;;;;;;;0.47;0.47;;;3.80;99.90;;;;;;5031797;28;20099;-86
2023/01/31 02:34:58;;;;;;;0.70;0.70;;;3.90;99.90;;;;;;5043812;28;20049;-84
2023/01/31 02:37:49;;;;;;;1.00;1.00;;;3.90;99.90;;;;;;5033612;28;20037;-85
2023/01/31 02:40:39;;;;;;;0.70;0.70;;;4.00;99.90;;;;;;5046053;28;20049;-84
2023/01/31 02:43:22;;;;;;;0.60;0.60;;;4.00;99.90;;;;;;5041022;28;20429;-85
2023/01/31 02:46:03;;;;;;;0.55;0.55;;;4.00;99.90;;;;;;5026686;28;20490;-83
2023/01/31 02:48:56;;;;;;;0.47;0.47;;;4.10;99.90;;;;;;5032368;28;20049;-85
2023/01/31 02:51:37;;;;;;;1.38;1.13;;;4.20;99.90;;;;;;5039467;28;20044;-85
2023/01/31 02:54:21;;;;;;;0.50;0.50;;;4.20;99.90;;;;;;5047203;28;20067;-85
2023/01/31 02:56:49;;;;;;;0.60;0.60;;;4.20;99.90;;;;;;5048845;28;20152;-84
2023/01/31 02:59:24;;;;;;;1.00;1.00;;;4.20;99.90;;;;;;5041577;28;20037;-84
2023/01/31 03:02:01;;;;;;;0.52;0.52;;;4.20;99.90;;;;;;5033766;28;20033;-84
2023/01/31 03:04:35;;;;;;;0.63;0.63;;;4.40;99.90;;;;;;5029585;28;20433;-83
2023/01/31 03:07:12;;;;;;;0.50;0.50;;;4.20;99.90;;;;;;5038311;28;20071;-83
2023/01/31 03:09:50;;;;;;;0.60;0.60;;;4.20;99.90;;;;;;5050003;28;20039;-84
2023/01/31 03:12:54;;;;;;;3.22;2.45;;;4.10;99.90;;;;;;5037523;28;20036;-85
2023/01/31 03:17:30;;;;;;;0.40;0.40;;;4.10;99.90;;;;;;5027779;28;20782;-85
2023/01/31 03:18:25;;;;;;;0.50;0.50;;;4.00;99.90;;;;;;5039337;28;20457;-85
2023/01/31 03:21:13;;;;;;;0.60;0.60;;;4.00;99.90;;;;;;5047372;28;20406;-84
2023/01/31 03:23:43;;;;;;;0.65;0.65;;;3.90;99.90;;;;;;5040364;28;20037;-84
2023/01/31 03:26:09;;;;;;;0.60;0.60;;;3.90;99.90;;;;;;5049545;28;20045;-84
2023/01/31 03:28:41;;;;;;;0.60;0.60;;;3.80;99.90;;;;;;5032959;28;20490;-84
2023/01/31 03:31:35;;;;;;;0.50;0.50;;;4.00;99.90;;;;;;5030400;28;20500;-84
2023/01/31 03:34:04;;;;;;;0.63;0.63;;;3.80;99.90;;;;;;5028003;28;20041;-85
2023/01/31 03:36:51;;;;;;;0.70;0.70;;;4.30;99.90;;;;;;5044753;28;20065;-84
2023/01/31 03:39:36;;;;;;;0.70;0.70;;;3.80;99.90;;;;;;5027105;28;20048;-85
2023/01/31 03:42:08;;;;;;;0.60;0.60;;;3.70;99.90;;;;;;5041155;28;20033;-85
2023/01/31 03:45:04;;;;;;;0.60;0.60;;;3.70;99.90;;;;;;5049127;28;20175;-85
2023/01/31 03:47:37;;;;;;;0.70;0.70;;;3.70;99.90;;;;;;5041181;28;20444;-85
2023/01/31 03:50:18;;;;;;;0.60;0.60;;;3.80;99.90;;;;;;5029695;28;20086;-84
2023/01/31 03:53:09;;;;;;;0.60;0.60;;;3.80;99.90;;;;;;5044129;28;20095;-85
2023/01/31 03:55:53;;;;;;;0.60;0.60;;;3.80;99.90;;;;;;5021786;28;20049;-84
2023/01/31 03:58:23;;;;;;;0.45;0.45;;;3.90;99.90;;;;;;5045960;28;20080;-85
2023/01/31 04:00:51;;;;;;;0.50;0.50;;;3.90;99.90;;;;;;5023792;28;20161;-84
2023/01/31 04:03:23;;;;;;;0.70;0.70;;;4.50;99.90;;;;;;5019464;28;20671;-85
2023/01/31 04:05:49;;;;;;;0.60;0.60;;;4.10;99.90;;;;;;5030306;28;20041;-84
2023/01/31 04:08:15;;;;;;;0.57;0.57;;;4.20;99.90;;;;;;5013565;28;20037;-83
2023/01/31 04:10:42;;;;;;;0.60;0.60;;;4.60;99.90;;;;;;5033473;28;20048;-85
2023/01/31 04:13:07;;;;;;;;;;;4.30;99.90;;;;;;5042322;28;20041;-85
2023/01/31 04:15:33;;;;;;;1.58;1.48;;;4.30;99.90;;;;;;5046200;28;19951;-84
2023/01/31 04:17:59;;;;;;;0.50;0.50;;;4.40;99.90;;;;;;5030590;28;20033;-82
2023/01/31 04:20:24;;;;;;;0.63;0.63;;;4.40;99.90;;;;;;5022034;28;20104;-83
2023/01/31 04:22:50;;;;;;;0.65;0.65;;;4.50;99.90;;;;;;5040845;28;20033;-85
2023/01/31 04:25:16;;;;;;;0.63;0.63;;;4.60;99.90;;;;;;5029642;28;20045;-85
2023/01/31 04:27:42;;;;;;;0.60;0.60;;;4.40;99.90;;;;;;5011962;28;20041;-85
2023/01/31 04:30:08;;;;;;;0.73;0.73;;;4.50;99.90;;;;;;5033166;28;20079;-85
2023/01/31 04:32:34;;;;;;;0.50;0.50;;;4.50;99.90;;;;;;5029580;28;20056;-86
2023/01/31 04:35:00;;;;;;;0.60;0.60;;;4.60;99.90;;;;;;5031489;28;20371;-85
2023/01/31 04:37:26;;;;;;;0.60;0.60;;;4.70;99.90;;;;;;5049412;28;20036;-86
2023/01/31 04:39:51;;;;;;;0.65;0.65;;;4.70;99.90;;;;;;5013184;28;20054;-85
2023/01/31 04:42:17;;;;;;;0.50;0.50;;;4.70;99.90;;;;;;5024387;28;20041;-86
2023/01/31 04:44:43;;;;;;;0.57;0.57;;;4.80;99.90;;;;;;5012522;28;20044;-85
2023/01/31 04:47:08;;;;;;;0.85;0.85;;;4.90;99.90;;;;;;5006516;28;20079;-86
2023/01/31 04:49:34;;;;;;;0.68;0.68;;;4.90;99.90;;;;;;5023403;28;20137;-84
2023/01/31 04:52:03;;;;;;;0.50;0.50;;;5.00;99.90;;;;;;5049470;28;20084;-84
2023/01/31 04:54:28;;;;;;;0.70;0.70;;;5.00;99.90;;;;;;5038810;28;20041;-84
2023/01/31 04:56:54;;;;;;;0.60;0.60;;;5.00;99.90;;;;;;5010720;28;20037;-85
2023/01/31 04:59:20;;;;;;;0.55;0.55;;;5.10;99.90;;;;;;5021224;28;20514;-85
2023/01/31 05:01:46;;;;;;;0.75;0.73;;;5.10;99.90;;;;;;5014888;28;20080;-84
2023/01/31 05:04:11;;;;;;;0.50;0.50;;;5.10;99.90;;;;;;5028586;28;20065;-84
2023/01/31 05:06:37;;;;;;;0.60;0.60;;;5.20;99.90;;;;;;5027420;28;20041;-85
2023/01/31 05:09:03;;;;;;;0.60;0.60;;;5.10;99.90;;;;;;5014758;28;20127;-84
2023/01/31 05:11:29;;;;;;;0.90;0.90;;;5.10;99.90;;;;;;5049376;28;20036;-84
2023/01/31 05:13:54;;;;;;;0.90;0.90;;;5.20;99.90;;;;;;5048498;28;20049;-86
2023/01/31 05:16:20;;;;;;;0.60;0.60;;;5.20;99.90;;;;;;5048364;28;20040;-87
2023/01/31 05:18:46;;;;;;;0.65;0.65;;;5.30;99.90;;;;;;5046780;28;20045;-84
2023/01/31 05:21:11;;;;;;;1.27;1.27;;;5.30;99.90;;;;;;5019098;28;20375;-84
2023/01/31 05:23:37;;;;;;;0.70;0.70;;;5.40;99.90;;;;;;5049242;28;20049;-85
2023/01/31 05:26:03;;;;;;;0.60;0.60;;;5.30;99.90;;;;;;5012384;28;20440;-85
2023/01/31 05:28:29;;;;;;;0.70;0.70;;;5.30;99.90;;;;;;5014779;28;20040;-85
2023/01/31 05:31:01;;;;;;;0.60;0.60;;;5.30;99.90;;;;;;5042888;28;20520;-84
2023/01/31 05:33:27;;;;;;;0.60;0.60;;;5.30;99.90;;;;;;5047347;28;20051;-85
2023/01/31 05:35:53;;;;;;;0.70;0.70;;;5.30;99.90;;;;;;5010916;28;20041;-85
2023/01/31 05:38:19;;;;;;;0.50;0.50;;;5.30;99.90;;;;;;5046569;28;20086;-85
2023/01/31 05:40:45;;;;;;;0.60;0.60;;;5.30;99.90;;;;;;5044371;28;20049;-85
2023/01/31 05:43:10;;;;;;;1.35;1.35;;;5.30;99.90;;;;;;5030855;28;20052;-86
2023/01/31 05:45:36;;;;;;;0.70;0.70;;;5.30;99.90;;;;;;5025703;28;20044;-85
2023/01/31 05:48:02;;;;;;;0.70;0.70;;;5.30;99.90;;;;;;5030686;28;20043;-85
2023/01/31 05:50:29;;;;;;;0.60;0.60;;;5.30;99.90;;;;;;5024364;28;20483;-86
2023/01/31 05:52:58;;;;;;;0.60;0.60;;;5.30;99.90;;;;;;5031885;28;20041;-83
2023/01/31 05:55:24;;;;;;;0.60;0.60;;;5.40;99.90;;;;;;5024543;28;20064;-83
2023/01/31 05:57:51;;;;;;;0.82;0.82;;;5.40;99.90;;;;;;5047269;28;20041;-86
2023/01/31 06:00:18;;;;;;;0.70;0.70;;;5.60;99.90;;;;;;5046153;28;20037;-86
2023/01/31 06:02:43;;;;;;;0.73;0.73;;;5.40;99.90;;;;;;5049048;28;20431;-85
2023/01/31 06:05:09;;;;;;;0.90;0.90;;;5.40;99.90;;;;;;5025834;28;20116;-86
2023/01/31 06:07:35;;;;;;;;;;;5.40;99.90;;;;;;5034986;28;20056;-85
2023/01/31 06:10:01;;;;;;;0.60;0.60;;;5.40;99.90;;;;;;5052069;28;19917;-85
2023/01/31 06:12:27;;;;;;;;;;;5.40;99.90;;;;;;5049759;28;20032;-85
2023/01/31 06:14:53;;;;;;;0.60;0.60;;;5.50;99.90;;;;;;5041747;28;19970;-85
2023/01/31 06:17:19;;;;;;;1.48;1.15;;;5.40;99.90;;;;;;5021260;28;20029;-85
2023/01/31 06:19:45;;;;;;;1.85;0.55;;;5.50;99.90;;;;;;5043306;28;20072;-86
2023/01/31 06:22:10;;;;;;;3.15;2.85;;;5.50;99.90;;;;;;5016543;28;20037;-85
2023/01/31 06:24:36;;;;;;;1.55;1.55;;;5.40;99.90;;;;;;5031845;28;20379;-84
2023/01/31 06:27:02;;;;;;;0.50;0.50;;;5.40;99.90;;;;;;5015677;28;20041;-85
2023/01/31 06:29:27;;;;;;;0.50;0.50;;;5.40;99.90;;;;;;5043947;28;20694;-83
2023/01/31 06:31:53;;;;;;;0.68;0.68;;;5.40;99.90;;;;;;5035141;28;20045;-84
2023/01/31 06:34:19;;;;;;;0.55;0.55;;;5.50;99.90;;;;;;5024562;28;20041;-85
2023/01/31 06:36:45;;;;;;;;;;;5.40;99.90;;;;;;5044555;28;20098;-84
2023/01/31 06:39:12;;;;;;;0.60;0.60;;;5.40;99.90;;;;;;5051499;28;19925;-85
2023/01/31 06:41:38;;;;;;;0.47;0.47;;;5.40;99.90;;;;;;5035531;28;20105;-83
2023/01/31 06:44:04;;;;;;;0.50;0.50;;;5.50;99.90;;;;;;5045174;28;20080;-84
2023/01/31 06:46:29;;;;;;;1.40;1.35;;;5.40;99.90;;;;;;5034029;28;20062;-83
2023/01/31 06:48:55;;;;;;;0.45;0.45;;;5.50;99.90;;;;;;5048243;28;20095;-84
2023/01/31 06:51:21;;;;;;;0.70;0.70;;;5.40;99.90;;;;;;5031927;28;20060;-84
2023/01/31 06:53:46;;;;;;;0.77;0.77;;;5.50;99.90;;;;;;5047537;28;20118;-83
2023/01/31 06:56:12;;;;;;;0.60;0.60;;;5.50;99.90;;;;;;5034653;28;20116;-84
2023/01/31 06:58:38;;;;;;;0.50;0.50;;;5.40;99.90;;;;;;5034972;28;20040;-84
2023/01/31 07:01:12;;;;;;;0.60;0.60;;;5.50;99.90;;;;;;5046645;28;20481;-83
2023/01/31 07:03:39;;;;;;;0.50;0.50;;;5.40;99.90;;;;;;5051125;28;20485;-83
2023/01/31 07:06:06;;;;;;;0.60;0.60;;;5.40;99.90;;;;;;5049782;28;20045;-84
2023/01/31 07:08:32;;;;;;;0.40;0.40;;;5.40;99.90;;;;;;5011600;28;20087;-84
2023/01/31 07:11:00;;;;;;;0.50;0.50;;;5.40;99.90;;;;;;4994312;28;20572;-83
2023/01/31 07:13:27;;;;;;;0.43;0.43;;;5.50;99.90;;;;;;5023711;28;21043;-83
2023/01/31 07:15:53;;;;;;;0.60;0.60;;;5.50;99.90;;;;;;5027129;28;20049;-85
2023/01/31 07:18:19;;;;;;;1.80;1.70;;;5.80;99.90;;;;;;5031434;28;20126;-85
2023/01/31 07:20:44;;;;;;;0.60;0.60;;;5.60;99.90;;;;;;5023993;28;20124;-85
2023/01/31 07:23:10;;;;;;;0.60;0.60;;;5.60;99.90;;;;;;5008272;28;20993;-84
2023/01/31 07:25:36;;;;;;;1.00;1.00;;;5.60;99.90;;;;;;5013164;28;20045;-83
2023/01/31 07:28:02;;;;;;;0.60;0.60;;;5.60;99.90;;;;;;5056909;28;20909;-83
2023/01/31 07:30:28;;;;;;;0.60;0.60;;;5.70;99.90;;;;;;5046080;28;20130;-84
2023/01/31 07:32:53;;;;;;;0.60;0.60;;;5.70;99.90;;;;;;5045551;28;20037;-85
2023/01/31 07:35:19;;;;;;;0.40;0.40;;;5.70;99.90;;;;;;5047009;28;20029;-83
2023/01/31 07:37:45;;;;;;;0.40;0.40;;;5.70;99.90;;;;;;5035986;28;20048;-84
2023/01/31 07:40:13;;;;;;;1.15;1.15;;;5.90;99.90;;;;;;5016221;28;20064;-84
2023/01/31 07:42:40;;;;;;;0.60;0.60;;;5.70;99.90;;;;;;5032036;28;20048;-85
2023/01/31 07:45:10;;;;;;;0.52;0.52;;;5.80;99.90;;;;;;5049163;28;20052;-84
2023/01/31 07:47:35;;;;;;;0.60;0.60;;;5.70;99.90;;;;;;5039748;28;20073;-83
2023/01/31 07:50:02;;;;;;;0.40;0.40;;;5.80;99.90;;;;;;5046866;28;20142;-83
2023/01/31 07:52:27;;;;;;;;;;;5.70;99.90;;;;;;5050896;28;20048;-84
2023/01/31 07:54:53;;;;;;;0.40;0.40;;;5.90;99.90;;;;;;5010077;28;19943;-83
2023/01/31 07:57:19;;;;;;;0.80;0.80;;;5.80;99.90;;;;;;5035148;28;20045;-84
2023/01/31 07:59:44;;;;;;;1.00;1.00;;;5.80;99.90;;;;;;5042515;28;20100;-84
2023/01/31 08:04:56;;;;;;;0.57;0.57;;;5.80;99.90;;;;;;5050616;28;20528;-84
2023/01/31 08:07:22;;;;;;;0.50;0.50;;;5.90;99.90;;;;;;5047373;28;20037;-84
2023/01/31 08:09:49;;;;;;;0.60;0.60;;;5.90;99.90;;;;;;5034205;28;20043;-84
2023/01/31 08:12:15;;;;;;;0.70;0.70;;;5.90;99.90;;;;;;5028647;28;20443;-83
2023/01/31 08:14:41;;;;;;;2.17;2.08;;;5.90;99.90;;;;;;5025941;28;20037;-83
2023/01/31 08:17:08;;;;;;;0.85;0.85;;;5.90;99.90;;;;;;5034052;28;20398;-83
2023/01/31 08:19:34;;;;;;;0.60;0.60;;;5.90;99.90;;;;;;5033907;28;20530;-83
2023/01/31 08:22:00;;;;;;;0.68;0.68;;;6.00;99.90;;;;;;5030095;28;20076;-84
2023/01/31 08:24:26;;;;;;;;;;;6.00;99.90;;;;;;5019347;28;20073;-83
2023/01/31 08:26:51;;;;;;;0.52;0.52;;;6.00;99.90;;;;;;5032197;28;19986;-84
2023/01/31 08:29:17;;;;;;;0.50;0.50;;;6.10;99.90;;;;;;5017573;28;20104;-87
2023/01/31 08:31:43;;;;;;;0.50;0.50;;;6.20;99.90;;;;;;5026972;28;20033;-84
2023/01/31 08:34:09;;;;;;;0.50;0.50;;;6.10;99.90;;;;;;5050523;28;20056;-86
2023/01/31 08:36:35;;;;;;;;;;;6.20;99.90;;;;;;5054714;28;20052;-84
2023/01/31 08:39:01;;;;;;;0.47;0.47;;;6.10;99.90;;;;;;5055527;28;19936;-85
2023/01/31 08:41:28;;;;;;;0.57;0.57;;;6.10;99.90;;;;;;5049802;28;20048;-85
2023/01/31 08:43:56;;;;;;;0.60;0.60;;;6.10;99.90;;;;;;5049170;28;20418;-85
2023/01/31 08:46:24;;;;;;;0.50;0.50;;;6.20;99.90;;;;;;5052150;28;20106;-84
2023/01/31 08:48:50;;;;;;;0.60;0.60;;;6.10;99.90;;;;;;5033898;28;20097;-84
2023/01/31 08:51:16;;;;;;;0.60;0.60;;;6.10;99.90;;;;;;5051345;28;20432;-85
2023/01/31 08:53:43;;;;;;;0.60;0.60;;;6.10;99.90;;;;;;5046567;28;20056;-83
2023/01/31 08:56:10;;;;;;;0.43;0.43;;;6.20;99.90;;;;;;5041729;28;20075;-84
2023/01/31 08:58:38;;;;;;;5.35;1.08;;;6.20;99.90;;;;;;5049819;28;20045;-85
2023/01/31 09:01:06;;;;;;;0.52;0.52;;;6.20;99.90;;;;;;5039733;28;20517;-83
2023/01/31 09:03:32;;;;;;;0.55;0.55;;;6.30;99.90;;;;;;5032796;28;20041;-85
2023/01/31 09:06:03;;;;;;;0.60;0.60;;;6.30;99.90;;;;;;5035039;28;20068;-83
2023/01/31 09:08:29;;;;;;;0.70;0.70;;;6.70;99.90;;;;;;5051490;28;20041;-85
2023/01/31 09:10:56;;;;;;;0.80;0.80;;;6.40;99.90;;;;;;5051153;28;20033;-86
2023/01/31 09:13:22;;;;;;;0.82;0.82;;;6.60;99.90;;;;;;5050963;28;20033;-85
2023/01/31 09:16:01;;;;;;;;;;;6.40;99.90;;;;;;5032601;28;20048;-83
2023/01/31 09:18:28;;;;;;;3.67;3.40;;;6.40;99.90;;;;;;5045954;28;19917;-84
2023/01/31 09:20:53;;;;;;;0.60;0.60;;;6.40;99.90;;;;;;5035442;28;20101;-84
2023/01/31 09:23:19;;;;;;;0.50;0.50;;;6.40;99.90;;;;;;5053893;28;20048;-84
2023/01/31 09:25:55;;;;;;;0.50;0.50;;;6.40;99.90;;;;;;5039262;28;20517;-84
2023/01/31 09:28:21;;;;;;;1.58;1.58;;;6.30;99.90;;;;;;5052135;28;20036;-85
2023/01/31 09:30:48;;;;;;;0.60;0.60;;;6.40;99.90;;;;;;5047030;28;20512;-83
2023/01/31 09:33:14;;;;;;;0.60;0.60;;;6.40;99.90;;;;;;5035533;28;20398;-85
2023/01/31 09:35:40;;;;;;;0.52;0.52;;;6.40;99.90;;;;;;5030190;28;20049;-84
2023/01/31 09:38:05;;;;;;;0.70;0.70;;;6.50;99.90;;;;;;5045296;28;20059;-84
2023/01/31 09:40:35;;;;;;;0.50;0.50;;;6.40;99.90;;;;;;5016423;28;20087;-84
2023/01/31 09:43:02;;;;;;;0.55;0.55;;;6.40;99.90;;;;;;5027646;28;20079;-83
2023/01/31 09:45:31;;;;;;;0.50;0.50;;;6.40;99.90;;;;;;5031732;28;20053;-84
2023/01/31 09:47:59;;;;;;;0.47;0.47;;;6.50;99.90;;;;;;5048727;28;20037;-86
2023/01/31 09:50:42;;;;;;;0.60;0.60;;;6.40;99.90;;;;;;5070248;28;20041;-88
2023/01/31 09:53:20;;;;;;;0.50;0.50;;;6.40;99.90;;;;;;5048015;28;20055;-86
2023/01/31 09:56:04;;;;;;;0.70;0.70;;;6.40;99.90;;;;;;5053727;28;20047;-86
2023/01/31 09:58:46;;;;;;;0.45;0.45;;;6.40;99.90;;;;;;5046995;28;20041;-83
2023/01/31 10:01:17;;;;;;;0.50;0.50;;;6.50;99.90;;;;;;5045817;28;20045;-84
2023/01/31 10:04:18;;;;;;;0.50;0.50;;;6.50;99.90;;;;;;5048785;28;20040;-87
2023/01/31 10:07:08;;;;;;;0.93;0.73;;;6.60;99.90;;;;;;5041540;28;20136;-85
2023/01/31 10:09:41;;;;;;;0.50;0.50;;;6.60;99.90;;;;;;5044302;28;20850;-85
2023/01/31 10:12:21;;;;;;;0.77;0.77;;;6.60;99.90;;;;;;5040555;28;20041;-84
2023/01/31 10:14:54;;;;;;;0.50;0.50;;;6.60;99.90;;;;;;5047275;28;20367;-85
2023/01/31 10:17:30;;;;;;;0.57;0.57;;;6.60;99.90;;;;;;5048702;28;20041;-86
2023/01/31 10:20:12;;;;;;;5.78;1.23;;;6.60;99.90;;;;;;5044039;28;20033;-84
2023/01/31 10:22:46;;;;;;;0.50;0.50;;;6.60;99.90;;;;;;5048776;28;20490;-86
2023/01/31 10:25:26;;;;;;;0.60;0.60;;;6.50;99.90;;;;;;5049962;28;20515;-85
2023/01/31 10:28:08;;;;;;;0.43;0.43;;;6.50;99.90;;;;;;5030084;28;20044;-85
2023/01/31 10:30:48;;;;;;;24.58;2.13;;;6.50;99.90;;;;;;5045324;28;20052;-85
2023/01/31 10:33:42;;;;;;;0.40;0.40;;;6.50;99.90;;;;;;5047408;28;20102;-85
2023/01/31 10:36:19;;;;;;;0.50;0.50;;;6.40;99.90;;;;;;5034871;28;20047;-84
2023/01/31 10:39:03;;;;;;;0.60;0.60;;;6.40;99.90;;;;;;5049530;28;20041;-85
2023/01/31 10:41:39;;;;;;;0.52;0.52;;;6.40;99.90;;;;;;5048169;28;20060;-85
2023/01/31 10:44:14;;;;;;;0.68;0.68;;;6.30;99.90;;;;;;5041838;28;20029;-85
2023/01/31 10:46:40;;;;;;;0.50;0.50;;;6.30;99.90;;;;;;5028852;28;20047;-86
2023/01/31 10:49:09;;;;;;;0.50;0.50;;;6.30;99.90;;;;;;5051077;28;20045;-85
2023/01/31 10:52:07;;;;;;;0.80;0.80;;;6.30;99.90;;;;;;5040760;28;20417;-87
2023/01/31 10:55:16;;;;;;;0.60;0.60;;;6.40;99.90;;;;;;5025284;28;20103;-86
2023/01/31 10:57:42;;;;;;;1.27;1.27;;;6.40;99.90;;;;;;5047052;28;20045;-86
2023/01/31 11:00:20;;;;;;;0.50;0.50;;;7.00;99.90;;;;;;5043041;28;20089;-86
2023/01/31 11:02:46;;;;;;;0.52;0.52;;;6.40;99.90;;;;;;5041812;28;20051;-86
2023/01/31 11:05:19;;;;;;;0.52;0.52;;;6.40;99.90;;;;;;5048268;28;20032;-86
2023/01/31 11:07:46;;;;;;;5.10;4.32;;;6.50;99.90;;;;;;5047261;28;20090;-85
2023/01/31 11:10:31;;;;;;;0.50;0.50;;;6.40;99.90;;;;;;5030161;28;20112;-86
2023/01/31 11:13:03;;;;;;;1.10;1.10;;;6.50;99.90;;;;;;5047672;28;20044;-86
2023/01/31 11:15:41;;;;;;;0.43;0.43;;;6.50;99.90;;;;;;5032956;28;20045;-85
2023/01/31 11:18:13;;;;;;;0.45;0.45;;;6.50;99.90;;;;;;5040431;28;20037;-86
2023/01/31 11:20:46;;;;;;;0.60;0.60;;;6.50;99.90;;;;;;5040229;28;20427;-85
2023/01/31 11:23:21;;;;;;;0.60;0.60;;;6.50;99.90;;;;;;5045466;28;20372;-84
2023/01/31 11:25:51;;;;;;;0.45;0.45;;;6.50;99.90;;;;;;5034052;28;20037;-85
2023/01/31 11:28:26;;;;;;;0.43;0.43;;;6.50;99.90;;;;;;5044357;28;20028;-85
2023/01/31 11:30:54;;;;;;;0.60;0.60;;;6.50;99.90;;;;;;5051204;28;20115;-84
2023/01/31 11:33:39;;;;;;;0.40;0.40;;;6.50;99.90;;;;;;5024868;28;20819;-85
2023/01/31 11:36:14;;;;;;;0.50;0.50;;;6.50;99.90;;;;;;5046914;28;20045;-85
2023/01/31 11:38:40;;;;;;;0.50;0.50;;;6.60;99.90;;;;;;5047055;28;20474;-85
2023/01/31 11:41:30;;;;;;;0.50;0.50;;;6.60;99.90;;;;;;5033288;28;20056;-85
2023/01/31 11:44:28;;;;;;;0.50;0.50;;;6.60;99.90;;;;;;5046742;28;20030;-85
2023/01/31 11:47:03;;;;;;;0.88;0.88;;;6.70;99.90;;;;;;5012801;28;20568;-85
2023/01/31 11:49:40;;;;;;;0.50;0.50;;;6.70;99.90;;;;;;5022694;28;20037;-85
2023/01/31 11:52:15;;;;;;;0.60;0.60;;;6.80;99.90;;;;;;5041363;28;20033;-85
2023/01/31 11:54:48;;;;;;;0.47;0.47;;;6.80;99.90;;;;;;5046695;28;20045;-86
2023/01/31 11:57:22;;;;;;;0.50;0.50;;;6.80;99.90;;;;;;5049728;28;20033;-85
2023/01/31 11:59:54;;;;;;;0.45;0.45;;;6.80;99.90;;;;;;5048393;28;20041;-86
2023/01/31 12:02:39;;;;;;;1.80;1.70;;;6.80;99.90;;;;;;5040022;28;20073;-85
2023/01/31 12:05:11;;;;;;;2.05;2.05;;;6.90;99.90;;;;;;5044589;28;20416;-85
2023/01/31 12:07:48;;;;;;;0.50;0.50;;;6.90;99.90;;;;;;5042007;28;20045;-85
2023/01/31 12:10:40;;;;;;;0.50;0.50;;;6.90;99.90;;;;;;5036873;28;20426;-85
2023/01/31 12:13:15;;;;;;;0.50;0.50;;;7.00;99.90;;;;;;5046685;28;20044;-85
2023/01/31 12:15:54;;;;;;;0.50;0.50;;;7.10;99.90;;;;;;5055385;28;20437;-85
2023/01/31 12:18:55;;;;;;;0.50;0.50;;;7.20;99.90;;;;;;5036580;28;20045;-85
2023/01/31 12:21:27;;;;;;;0.50;0.50;;;7.20;99.90;;;;;;5024081;28;20064;-87
2023/01/31 12:24:05;;;;;;;0.60;0.60;;;7.30;99.90;;;;;;5045177;28;20061;-85
2023/01/31 12:26:52;;;;;;;0.70;0.70;;;7.40;99.90;;;;;;5046741;28;20045;-85
2023/01/31 12:29:40;;;;;;;0.60;0.60;;;7.40;99.90;;;;;;5027480;28;20048;-85
2023/01/31 12:32:36;;;;;;;0.50;0.50;;;7.40;99.90;;;;;;5047582;28;20056;-85
2023/01/31 12:35:38;;;;;;;7.53;1.60;;;7.50;99.90;;;;;;5042727;28;20044;-85
2023/01/31 12:38:25;;;;;;;0.68;0.65;;;7.60;99.90;;;;;;5048048;28;20045;-85
2023/01/31 12:41:14;;;;;;;0.40;0.40;;;7.70;99.90;;;;;;5052014;28;20055;-85
2023/01/31 12:44:17;;;;;;;0.50;0.50;;;7.80;99.90;;;;;;5052674;28;20123;-85
2023/01/31 12:47:25;;;;;;;0.60;0.60;;;7.70;99.90;;;;;;5055910;28;20124;-86
2023/01/31 12:50:23;;;;;;;0.60;0.60;;;7.80;99.90;;;;;;5054689;28;20049;-85
2023/01/31 12:53:12;;;;;;;0.50;0.50;;;7.80;99.90;;;;;;5047139;28;20068;-85
2023/01/31 12:55:45;;;;;;;0.57;0.57;;;7.90;99.90;;;;;;5044379;28;20049;-85
2023/01/31 12:58:42;;;;;;;0.50;0.50;;;8.00;99.90;;;;;;5057312;28;20083;-85
2023/01/31 13:01:30;;;;;;;0.60;0.60;;;8.00;99.90;;;;;;5052378;28;20049;-85
2023/01/31 13:04:38;;;;;;;2.28;2.15;;;8.00;99.90;;;;;;5045730;28;20044;-84
2023/01/31 13:07:11;;;;;;;0.50;0.50;;;8.10;99.90;;;;;;5041762;28;20483;-86
2023/01/31 13:09:37;;;;;;;0.60;0.60;;;8.10;99.90;;;;;;5038222;28;20124;-85
2023/01/31 13:12:08;;;;;;;;;;;8.10;99.90;;;;;;5053086;28;20033;-84
2023/01/31 13:14:40;;;;;;;0.40;0.40;;;8.20;99.90;;;;;;5036278;28;20389;-85
2023/01/31 13:17:11;;;;;;;0.63;0.63;;;8.20;99.90;;;;;;5035193;28;20184;-85
2023/01/31 13:19:48;;;;;;;1.02;1.02;;;8.20;99.90;;;;;;5047803;28;20056;-84
2023/01/31 13:22:34;;;;;;;0.47;0.47;;;8.20;99.90;;;;;;5043112;28;20041;-85
2023/01/31 13:25:14;;;;;;;0.90;0.90;;;8.20;99.90;;;;;;5046733;28;20111;-86
2023/01/31 13:27:55;;;;;;;2.40;2.28;;;8.30;99.90;;;;;;5052748;28;20549;-85
2023/01/31 13:30:49;;;;;;;0.50;0.50;;;8.30;99.90;;;;;;5050621;28;20075;-85